createdAt,value
2023-04-26T00:01:03.948Z,1.90
2023-04-26T00:03:31.469Z,2.10
2023-04-26T00:06:00.176Z,1.87
2023-04-26T00:08:28.176Z,1.80
2023-04-26T00:10:55.558Z,1.97
2023-04-26T00:13:22.978Z,1.87
2023-04-26T00:15:51.758Z,2.00
2023-04-26T00:18:19.240Z,1.97
2023-04-26T00:20:46.730Z,1.80
2023-04-26T00:23:14.124Z,2.00
2023-04-26T00:25:41.793Z,2.77
2023-04-26T00:28:09.148Z,2.00
2023-04-26T00:30:37.570Z,2.10
2023-04-26T00:33:06.315Z,1.90
2023-04-26T00:35:33.694Z,2.07
2023-04-26T00:38:01.467Z,2.13
2023-04-26T00:40:28.828Z,1.93
2023-04-26T00:42:58.150Z,1.73
2023-04-26T00:45:25.513Z,2.00
2023-04-26T00:47:53.839Z,2.20
2023-04-26T00:50:22.671Z,1.77
2023-04-26T00:52:50.298Z,1.90
2023-04-26T00:55:17.994Z,1.90
2023-04-26T00:57:46.121Z,2.00
2023-04-26T01:00:16.848Z,2.20
2023-04-26T01:02:44.467Z,2.07
2023-04-26T01:05:12.378Z,2.07
2023-04-26T01:07:41.116Z,2.10
2023-04-26T01:10:09.431Z,2.03
2023-04-26T01:12:37.394Z,2.10
2023-04-26T01:15:06.195Z,2.00
2023-04-26T01:17:33.854Z,2.23
2023-04-26T01:20:01.509Z,2.10
2023-04-26T01:22:28.915Z,2.60
2023-04-26T01:24:59.036Z,2.20
2023-04-26T01:27:26.789Z,2.10
2023-04-26T01:29:54.214Z,2.10
2023-04-26T01:32:21.666Z,2.23
2023-04-26T01:34:50.258Z,2.30
2023-04-26T01:37:19.397Z,2.23
2023-04-26T01:39:47.004Z,1.87
2023-04-26T01:42:15.754Z,2.30
2023-04-26T01:44:43.107Z,2.17
2023-04-26T01:47:10.724Z,2.27
2023-04-26T01:49:38.206Z,2.03
2023-04-26T01:52:05.664Z,2.23
2023-04-26T01:54:33.088Z,2.20
2023-04-26T01:57:00.925Z,2.30
2023-04-26T01:59:29.965Z,2.00
2023-04-26T02:01:59.573Z,2.10
2023-04-26T02:04:27.183Z,2.20
2023-04-26T02:06:55.355Z,2.10
2023-04-26T02:09:24.673Z,2.33
2023-04-26T02:11:52.073Z,2.00
2023-04-26T02:14:20.256Z,2.13
2023-04-26T02:16:51.727Z,2.03
2023-04-26T02:19:19.125Z,2.23
2023-04-26T02:21:53.853Z,2.40
2023-04-26T02:24:21.446Z,2.20
2023-04-26T02:26:48.828Z,2.20
2023-04-26T02:29:16.234Z,2.70
2023-04-26T02:31:43.687Z,2.43
2023-04-26T02:34:13.569Z,2.33
2023-04-26T02:36:41.259Z,2.60
2023-04-26T02:39:08.800Z,2.47
2023-04-26T02:41:36.678Z,2.40
2023-04-26T02:44:04.102Z,2.60
2023-04-26T02:46:31.545Z,2.40
2023-04-26T02:49:00.382Z,2.40
2023-04-26T02:51:29.463Z,2.50
2023-04-26T02:53:56.880Z,2.50
2023-04-26T02:56:25.167Z,2.57
2023-04-26T02:58:52.933Z,2.80
2023-04-26T03:01:21.029Z,2.80
2023-04-26T03:03:48.595Z,2.60
2023-04-26T03:06:16.066Z,2.70
2023-04-26T03:08:44.787Z,2.80
2023-04-26T03:11:12.315Z,2.57
2023-04-26T03:13:39.757Z,2.77
2023-04-26T03:16:07.938Z,2.73
2023-04-26T03:18:35.982Z,2.53
2023-04-26T03:21:03.759Z,2.60
2023-04-26T03:23:31.300Z,2.50
2023-04-26T03:26:00.156Z,2.33
2023-04-26T03:28:28.274Z,2.20
2023-04-26T03:30:56.333Z,2.50
2023-04-26T03:33:23.929Z,2.30
2023-04-26T03:35:51.530Z,2.53
2023-04-26T03:38:19.047Z,2.80
2023-04-26T03:40:46.747Z,2.57
2023-04-26T03:43:15.637Z,2.50
2023-04-26T03:45:43.208Z,2.33
2023-04-26T03:48:10.752Z,3.23
2023-04-26T03:50:39.459Z,2.90
2023-04-26T03:53:06.810Z,3.00
2023-04-26T03:55:34.168Z,2.80
2023-04-26T03:58:03.187Z,3.07
2023-04-26T04:00:32.283Z,3.33
2023-04-26T04:02:59.959Z,3.07
2023-04-26T04:05:28.014Z,3.30
2023-04-26T04:07:56.442Z,3.37
2023-04-26T04:10:24.098Z,3.90
2023-04-26T04:12:51.654Z,3.97
2023-04-26T04:15:19.832Z,3.67
2023-04-26T04:17:49.598Z,4.00
2023-04-26T04:20:17.038Z,3.23
2023-04-26T04:22:44.459Z,2.63
2023-04-26T04:25:11.979Z,2.50
2023-04-26T04:27:42.366Z,2.40
2023-04-26T04:30:10.434Z,2.53
2023-04-26T04:32:39.212Z,2.40
2023-04-26T04:35:08.700Z,2.17
2023-04-26T04:37:36.124Z,2.40
2023-04-26T04:40:04.599Z,2.07
2023-04-26T04:42:34.843Z,2.30
2023-04-26T04:45:04.935Z,2.77
2023-04-26T04:47:33.935Z,2.60
2023-04-26T04:50:01.886Z,2.70
2023-04-26T04:52:30.640Z,2.47
2023-04-26T04:54:58.044Z,2.50
2023-04-26T04:57:25.539Z,2.53
2023-04-26T04:59:53.205Z,3.13
2023-04-26T05:02:21.033Z,2.90
2023-04-26T05:04:48.918Z,2.90
2023-04-26T05:07:18.338Z,2.80
2023-04-26T05:09:47.370Z,2.87
2023-04-26T05:12:14.718Z,3.00
2023-04-26T05:14:42.126Z,3.17
2023-04-26T05:17:09.611Z,2.90
2023-04-26T05:19:37.505Z,3.00
2023-04-26T05:22:05.016Z,2.83
2023-04-26T05:24:32.786Z,3.10
2023-04-26T05:27:01.630Z,3.10
2023-04-26T05:29:52.029Z,3.97
2023-04-26T05:32:27.744Z,2.70
2023-04-26T05:35:13.840Z,2.77
2023-04-26T05:37:41.491Z,2.70
2023-04-26T05:40:12.251Z,2.73
2023-04-26T05:42:41.805Z,3.10
2023-04-26T05:45:10.859Z,3.20
2023-04-26T05:47:39.248Z,3.33
2023-04-26T05:50:07.319Z,3.20
2023-04-26T05:52:34.736Z,3.20
2023-04-26T05:55:04.113Z,3.30
2023-04-26T05:57:31.553Z,3.27
2023-04-26T06:00:01.000Z,3.13
2023-04-26T06:02:28.904Z,3.60
2023-04-26T06:04:57.040Z,3.30
2023-04-26T06:07:24.511Z,3.33
2023-04-26T06:09:51.871Z,3.43
2023-04-26T06:12:19.229Z,3.50
2023-04-26T06:14:47.693Z,3.43
2023-04-26T06:17:21.768Z,3.53
2023-04-26T06:19:49.435Z,3.77
2023-04-26T06:22:16.837Z,3.60
2023-04-26T06:24:44.219Z,4.20
2023-04-26T06:27:11.574Z,4.77
2023-04-26T06:29:41.634Z,4.80
2023-04-26T06:32:09.077Z,4.67
2023-04-26T06:34:37.894Z,6.23
2023-04-26T06:37:06.482Z,6.80
2023-04-26T06:39:48.288Z,8.03
2023-04-26T06:42:43.100Z,7.20
2023-04-26T06:45:31.248Z,7.47
2023-04-26T06:48:09.170Z,7.37
2023-04-26T06:50:44.218Z,6.97
2023-04-26T06:53:12.903Z,6.80
2023-04-26T06:55:40.303Z,7.13
2023-04-26T06:58:07.699Z,7.47
2023-04-26T07:00:35.081Z,7.17
2023-04-26T07:03:02.805Z,7.50
2023-04-26T07:05:30.368Z,7.70
2023-04-26T07:07:59.109Z,7.57
2023-04-26T07:10:27.471Z,7.40
2023-04-26T07:12:55.718Z,7.10
2023-04-26T07:15:23.472Z,7.43
2023-04-26T07:17:51.010Z,6.80
2023-04-26T07:20:20.231Z,6.50
2023-04-26T07:22:47.726Z,6.97
2023-04-26T07:25:16.516Z,6.87
2023-04-26T07:27:43.899Z,6.77
2023-04-26T07:30:11.615Z,6.50
2023-04-26T07:32:39.089Z,7.43
2023-04-26T07:35:08.204Z,6.23
2023-04-26T07:37:35.595Z,6.37
2023-04-26T07:40:04.857Z,6.47
2023-04-26T07:42:33.585Z,6.20
2023-04-26T07:45:00.948Z,5.80
2023-04-26T07:47:28.430Z,5.70
2023-04-26T07:49:55.847Z,5.90
2023-04-26T07:52:23.207Z,5.97
2023-04-26T07:54:50.603Z,5.97
2023-04-26T07:57:18.047Z,5.70
2023-04-26T07:59:46.791Z,5.83
2023-04-26T08:02:14.526Z,5.23
2023-04-26T08:04:48.489Z,5.90
2023-04-26T08:07:16.386Z,5.87
2023-04-26T08:09:43.787Z,6.17
2023-04-26T08:12:11.954Z,5.80
2023-04-26T08:14:39.702Z,6.00
2023-04-26T08:17:09.228Z,6.10
2023-04-26T08:19:36.962Z,7.17
2023-04-26T08:22:05.643Z,7.03
2023-04-26T08:24:33.032Z,6.57
2023-04-26T08:27:00.623Z,6.87
2023-04-26T08:29:28.880Z,6.20
2023-04-26T08:31:56.555Z,5.97
2023-04-26T08:34:25.390Z,5.80
2023-04-26T08:36:52.777Z,5.80
2023-04-26T08:39:40.291Z,6.00
2023-04-26T08:42:36.951Z,5.20
2023-04-26T08:45:12.485Z,4.90
2023-04-26T08:47:42.200Z,4.10
2023-04-26T08:50:11.702Z,4.43
2023-04-26T08:52:40.974Z,3.90
2023-04-26T08:55:09.172Z,4.63
2023-04-26T08:57:37.065Z,5.00
2023-04-26T09:00:09.814Z,4.97
2023-04-26T09:02:37.891Z,4.40
2023-04-26T09:05:06.910Z,4.40
2023-04-26T09:07:36.747Z,4.87
2023-04-26T09:10:05.812Z,5.07
2023-04-26T09:12:33.210Z,4.50
2023-04-26T09:15:01.105Z,4.60
2023-04-26T09:17:29.304Z,4.67
2023-04-26T09:19:56.735Z,4.00
2023-04-26T09:22:33.996Z,4.27
2023-04-26T09:25:03.424Z,3.93
2023-04-26T09:27:34.629Z,4.33
2023-04-26T09:30:05.465Z,3.90
2023-04-26T09:32:49.532Z,3.70
2023-04-26T09:35:34.900Z,4.63
2023-04-26T09:38:09.656Z,4.23
2023-04-26T09:40:41.688Z,4.80
2023-04-26T09:43:14.193Z,5.13
2023-04-26T09:45:45.795Z,4.80
2023-04-26T09:48:13.547Z,4.80
2023-04-26T09:50:41.036Z,4.70
2023-04-26T09:53:10.436Z,4.80
2023-04-26T09:55:37.820Z,4.90
2023-04-26T09:58:12.602Z,5.17
2023-04-26T10:00:42.320Z,4.10
2023-04-26T10:03:10.473Z,4.83
2023-04-26T10:05:38.711Z,4.70
2023-04-26T10:08:07.070Z,5.60
2023-04-26T10:10:34.561Z,5.17
2023-04-26T10:13:01.934Z,4.67
2023-04-26T10:15:30.800Z,4.97
2023-04-26T10:17:58.263Z,4.87
2023-04-26T10:20:28.015Z,4.17
2023-04-26T10:23:01.947Z,4.43
2023-04-26T10:25:38.988Z,4.30
2023-04-26T10:28:06.646Z,4.13
2023-04-26T10:30:54.602Z,3.90
2023-04-26T10:33:23.452Z,3.37
2023-04-26T10:36:05.131Z,3.70
2023-04-26T10:38:32.624Z,3.30
2023-04-26T10:41:18.643Z,3.07
2023-04-26T10:43:46.154Z,3.33
2023-04-26T10:46:28.438Z,3.47
2023-04-26T10:48:57.260Z,3.10
2023-04-26T10:51:24.671Z,3.53
2023-04-26T10:54:04.275Z,3.60
2023-04-26T10:56:50.936Z,3.20
2023-04-26T11:01:53.317Z,2.90
2023-04-26T11:04:22.242Z,3.20
2023-04-26T11:06:50.879Z,3.27
2023-04-26T11:09:34.033Z,3.20
2023-04-26T11:12:02.252Z,3.10
2023-04-26T11:14:30.065Z,3.10
2023-04-26T11:16:57.425Z,2.90
2023-04-26T11:19:27.373Z,3.00
2023-04-26T11:21:56.223Z,3.27
2023-04-26T11:24:27.023Z,3.27
2023-04-26T11:26:54.597Z,2.40
2023-04-26T11:29:22.281Z,2.67
2023-04-26T11:31:53.231Z,2.57
2023-04-26T11:34:24.359Z,2.00
2023-04-26T11:36:54.366Z,2.20
2023-04-26T11:39:22.541Z,2.20
2023-04-26T11:41:50.013Z,2.60
2023-04-26T11:44:20.852Z,2.40
2023-04-26T11:46:49.129Z,1.90
2023-04-26T11:49:17.413Z,2.10
2023-04-26T11:51:45.955Z,2.30
2023-04-26T11:54:27.424Z,2.10
2023-04-26T11:56:54.857Z,2.10
2023-04-26T11:59:24.842Z,2.20
2023-04-26T12:01:52.876Z,1.90
2023-04-26T12:04:20.574Z,1.90
2023-04-26T12:06:49.622Z,1.93
2023-04-26T12:09:23.432Z,1.90
2023-04-26T12:11:54.855Z,2.00
2023-04-26T12:14:22.984Z,2.30
2023-04-26T12:16:50.444Z,1.90
2023-04-26T12:19:17.893Z,2.33
2023-04-26T12:21:45.626Z,2.00
2023-04-26T12:24:26.869Z,2.43
2023-04-26T12:26:54.251Z,1.90
2023-04-26T12:29:21.682Z,2.07
2023-04-26T12:31:49.094Z,2.27
2023-04-26T12:34:16.572Z,1.83
2023-04-26T12:36:44.398Z,1.90
2023-04-26T12:39:13.444Z,2.57
2023-04-26T12:41:42.260Z,1.70
2023-04-26T12:44:09.831Z,2.00
2023-04-26T12:46:37.358Z,1.90
2023-04-26T12:49:04.835Z,1.90
2023-04-26T12:51:33.737Z,1.70
2023-04-26T12:54:07.188Z,1.97
2023-04-26T12:56:44.932Z,1.70
2023-04-26T12:59:12.363Z,1.70
2023-04-26T13:01:39.901Z,1.97
2023-04-26T13:04:07.527Z,1.90
2023-04-26T13:06:36.032Z,1.93
2023-04-26T13:09:03.704Z,1.67
2023-04-26T13:11:31.062Z,1.77
2023-04-26T13:13:59.900Z,1.80
2023-04-26T13:16:27.733Z,1.80
2023-04-26T13:18:55.915Z,1.80
2023-04-26T13:21:23.311Z,1.70
2023-04-26T13:23:50.908Z,1.77
2023-04-26T13:26:18.510Z,1.83
2023-04-26T13:28:47.322Z,1.70
2023-04-26T13:31:17.262Z,2.10
2023-04-26T13:33:47.084Z,2.07
2023-04-26T13:36:15.733Z,2.00
2023-04-26T13:38:43.123Z,1.80
2023-04-26T13:41:10.665Z,2.00
2023-04-26T13:43:38.147Z,2.20
2023-04-26T13:46:05.685Z,1.80
2023-04-26T13:48:34.429Z,2.03
2023-04-26T13:51:03.247Z,1.90
2023-04-26T13:53:31.784Z,1.87
2023-04-26T13:55:59.187Z,2.30
2023-04-26T13:58:26.563Z,2.20
2023-04-26T14:00:53.930Z,2.53
2023-04-26T14:03:21.680Z,2.27
2023-04-26T14:05:50.787Z,2.10
2023-04-26T14:08:18.306Z,1.90
2023-04-26T14:10:45.701Z,2.17
2023-04-26T14:13:13.118Z,2.03
2023-04-26T14:15:40.495Z,2.20
2023-04-26T14:18:07.926Z,2.00
2023-04-26T14:20:36.071Z,2.10
2023-04-26T14:23:04.933Z,3.80
2023-04-26T14:25:32.374Z,2.30
2023-04-26T14:27:59.760Z,2.00
2023-04-26T14:30:27.168Z,2.30
2023-04-26T14:32:54.625Z,1.80
2023-04-26T14:35:22.106Z,2.10
2023-04-26T14:37:49.470Z,2.00
2023-04-26T14:40:18.370Z,1.67
2023-04-26T14:42:46.494Z,1.93
2023-04-26T14:45:14.056Z,2.20
2023-04-26T14:47:41.513Z,1.97
2023-04-26T14:50:10.391Z,1.90
2023-04-26T14:52:37.784Z,1.80
2023-04-26T14:55:05.672Z,2.50
2023-04-26T14:57:34.602Z,2.03
2023-04-26T15:00:06.955Z,2.27
2023-04-26T15:02:34.672Z,1.90
2023-04-26T15:05:03.706Z,2.10
2023-04-26T15:07:32.931Z,1.90
2023-04-26T15:10:01.945Z,2.20
2023-04-26T15:12:29.421Z,1.93
2023-04-26T15:14:58.187Z,1.90
2023-04-26T15:17:25.634Z,1.87
2023-04-26T15:19:53.006Z,2.00
2023-04-26T15:22:20.408Z,1.90
2023-04-26T15:24:49.478Z,2.30
2023-04-26T15:27:16.865Z,2.30
2023-04-26T15:29:44.278Z,2.00
2023-04-26T15:32:13.103Z,2.20
2023-04-26T15:34:43.006Z,2.30
2023-04-26T15:37:10.678Z,2.37
2023-04-26T15:39:38.230Z,2.40
2023-04-26T15:42:05.911Z,2.20
2023-04-26T15:44:33.396Z,2.07
2023-04-26T15:47:03.319Z,2.10
2023-04-26T15:49:32.014Z,2.50
2023-04-26T15:51:59.537Z,2.50
2023-04-26T15:54:27.529Z,2.20
2023-04-26T15:56:55.340Z,2.27
2023-04-26T15:59:22.732Z,2.07
2023-04-26T16:01:50.209Z,2.23
2023-04-26T16:04:17.799Z,2.40
2023-04-26T16:06:46.680Z,1.90
2023-04-26T16:09:24.881Z,2.43
2023-04-26T16:11:53.015Z,2.00
2023-04-26T16:14:20.372Z,2.00
2023-04-26T16:16:47.808Z,3.47
2023-04-26T16:19:16.222Z,2.43
2023-04-26T16:21:43.700Z,2.10
2023-04-26T16:24:12.712Z,2.33
2023-04-26T16:26:40.136Z,2.25
2023-04-26T16:29:07.576Z,2.70
2023-04-26T16:31:35.248Z,2.90
2023-04-26T16:34:02.655Z,2.50
2023-04-26T16:36:30.069Z,2.40
2023-04-26T16:38:57.505Z,2.50
2023-04-26T16:41:27.312Z,2.40
2023-04-26T16:43:55.886Z,2.57
2023-04-26T16:46:23.375Z,2.30
2023-04-26T16:48:50.979Z,2.20
2023-04-26T16:51:18.362Z,2.40
2023-04-26T16:53:45.789Z,2.43
2023-04-26T16:56:13.166Z,2.40
2023-04-26T16:58:41.999Z,2.37
2023-04-26T17:01:09.433Z,2.70
2023-04-26T17:03:36.984Z,2.40
2023-04-26T17:06:06.476Z,2.30
2023-04-26T17:08:33.853Z,2.30
2023-04-26T17:11:01.248Z,2.27
2023-04-26T17:13:30.725Z,2.20
2023-04-26T17:15:59.510Z,2.27
2023-04-26T17:18:26.991Z,2.33
2023-04-26T17:20:56.150Z,2.40
2023-04-26T17:23:24.371Z,2.10
2023-04-26T17:25:53.352Z,2.20
2023-04-26T17:28:22.469Z,2.50
2023-04-26T17:30:49.904Z,2.50
2023-04-26T17:33:18.880Z,2.20
2023-04-26T17:35:47.167Z,2.33
2023-04-26T17:38:14.640Z,2.30
2023-04-26T17:40:42.009Z,2.03
2023-04-26T17:43:09.474Z,2.50
2023-04-26T17:45:36.916Z,2.40
2023-04-26T17:48:05.309Z,2.37
2023-04-26T17:50:34.210Z,2.30
2023-04-26T17:53:04.587Z,2.50
2023-04-26T17:55:33.398Z,2.23
2023-04-26T17:58:00.834Z,2.20
2023-04-26T18:00:28.339Z,2.20
2023-04-26T18:02:57.575Z,2.20
2023-04-26T18:05:25.451Z,2.13
2023-04-26T18:07:54.213Z,2.20
2023-04-26T18:10:21.776Z,2.30
2023-04-26T18:12:49.176Z,3.10
2023-04-26T18:15:16.555Z,2.27
2023-04-26T18:17:43.954Z,2.53
2023-04-26T18:20:12.957Z,2.30
2023-04-26T18:22:40.592Z,2.40
2023-04-26T18:25:09.833Z,2.60
2023-04-26T18:27:37.306Z,2.50
2023-04-26T18:30:05.313Z,2.30
2023-04-26T18:32:32.712Z,2.37
2023-04-26T18:35:00.591Z,2.10
2023-04-26T18:37:28.026Z,2.47
2023-04-26T18:39:55.449Z,2.80
2023-04-26T18:42:24.188Z,2.60
2023-04-26T18:44:51.613Z,2.30
2023-04-26T18:47:19.037Z,2.83
2023-04-26T18:49:46.817Z,2.40
2023-04-26T18:52:14.192Z,2.83
2023-04-26T18:54:41.740Z,2.63
2023-04-26T18:57:10.428Z,2.80
2023-04-26T18:59:39.592Z,2.90
2023-04-26T19:02:07.719Z,2.50
2023-04-26T19:04:35.473Z,2.67
2023-04-26T19:07:03.907Z,2.57
2023-04-26T19:09:35.115Z,2.60
2023-04-26T19:12:10.533Z,2.73
2023-04-26T19:14:39.248Z,2.87
2023-04-26T19:17:07.354Z,2.47
2023-04-26T19:19:34.727Z,2.70
2023-04-26T19:22:03.451Z,2.40
2023-04-26T19:24:30.860Z,2.93
2023-04-26T19:26:58.200Z,2.60
2023-04-26T19:29:25.738Z,2.50
2023-04-26T19:31:54.523Z,2.57
2023-04-26T19:34:22.752Z,3.00
2023-04-26T19:36:50.251Z,3.17
2023-04-26T19:39:17.685Z,3.03
2023-04-26T19:41:45.065Z,3.43
2023-04-26T19:44:13.146Z,3.73
2023-04-26T19:46:40.634Z,3.90
2023-04-26T19:49:09.353Z,3.70
2023-04-26T19:51:36.775Z,3.40
2023-04-26T19:54:04.328Z,2.53
2023-04-26T19:56:31.803Z,2.90
2023-04-26T19:58:59.321Z,2.97
2023-04-26T20:01:27.466Z,2.90
2023-04-26T20:03:55.052Z,2.70
2023-04-26T20:06:23.821Z,2.93
2023-04-26T20:08:51.161Z,3.03
2023-04-26T20:11:19.155Z,3.13
2023-04-26T20:13:46.831Z,3.10
2023-04-26T20:16:14.369Z,3.40
2023-04-26T20:18:41.851Z,3.30
2023-04-26T20:21:09.283Z,3.10
2023-04-26T20:23:38.076Z,3.10
2023-04-26T20:26:05.592Z,2.87
2023-04-26T20:28:33.043Z,2.90
2023-04-26T20:31:00.484Z,2.93
2023-04-26T20:33:29.000Z,3.17
2023-04-26T20:35:56.642Z,3.20
2023-04-26T20:38:24.106Z,3.30
2023-04-26T20:40:52.841Z,3.27
2023-04-26T20:43:20.234Z,3.30
2023-04-26T20:45:47.636Z,3.97
2023-04-26T20:48:15.086Z,3.20
2023-04-26T20:50:42.471Z,3.97
2023-04-26T20:53:09.897Z,4.03
2023-04-26T20:55:37.330Z,3.70
2023-04-26T20:58:06.050Z,3.53
2023-04-26T21:00:33.409Z,3.23
2023-04-26T21:03:00.963Z,3.40
2023-04-26T21:05:28.749Z,3.33
2023-04-26T21:07:56.374Z,3.23
2023-04-26T21:10:23.777Z,3.83
2023-04-26T21:12:51.243Z,3.80
2023-04-26T21:15:20.061Z,3.57
2023-04-26T21:17:47.484Z,3.90
2023-04-26T21:20:15.018Z,3.17
2023-04-26T21:22:42.416Z,3.23
2023-04-26T21:25:12.762Z,3.60
2023-04-26T21:27:41.065Z,3.70
2023-04-26T21:30:09.050Z,3.60
2023-04-26T21:32:40.136Z,3.37
2023-04-26T21:35:08.161Z,3.70
2023-04-26T21:37:35.719Z,3.50
2023-04-26T21:40:04.849Z,3.70
2023-04-26T21:42:32.224Z,3.87
2023-04-26T21:44:59.571Z,3.93
2023-04-26T21:47:27.469Z,3.90
2023-04-26T21:49:56.302Z,3.73
2023-04-26T21:52:24.095Z,3.40
2023-04-26T21:54:52.965Z,3.83
2023-04-26T21:57:23.940Z,3.90
2023-04-26T21:59:51.584Z,4.90
2023-04-26T22:02:19.178Z,4.80
2023-04-26T22:04:46.697Z,4.90
2023-04-26T22:07:15.419Z,4.73
2023-04-26T22:09:42.810Z,4.83
2023-04-26T22:12:10.182Z,4.67
2023-04-26T22:14:37.548Z,5.20
2023-04-26T22:17:04.968Z,4.53
2023-04-26T22:19:32.341Z,4.60
2023-04-26T22:21:59.666Z,5.10
2023-04-26T22:24:28.405Z,4.80
2023-04-26T22:26:55.786Z,5.33
2023-04-26T22:29:23.151Z,5.10
2023-04-26T22:31:50.513Z,4.57
2023-04-26T22:34:19.283Z,5.03
2023-04-26T22:36:46.726Z,5.13
2023-04-26T22:39:14.809Z,6.43
2023-04-26T22:41:43.531Z,5.13
2023-04-26T22:44:10.954Z,4.67
2023-04-26T22:46:38.316Z,4.90
2023-04-26T22:49:05.878Z,4.53
2023-04-26T22:51:33.348Z,4.80
2023-04-26T22:54:00.791Z,4.70
2023-04-26T22:56:28.140Z,5.10
2023-04-26T22:58:56.864Z,5.00
2023-04-26T23:01:24.279Z,5.00
2023-04-26T23:03:51.733Z,4.70
2023-04-26T23:06:19.213Z,4.50
2023-04-26T23:08:46.626Z,4.33
2023-04-26T23:11:14.023Z,4.63
2023-04-26T23:13:41.448Z,4.73
2023-04-26T23:16:10.218Z,4.63
2023-04-26T23:18:37.618Z,4.63
2023-04-26T23:21:05.308Z,4.97
2023-04-26T23:23:32.683Z,4.83
2023-04-26T23:26:00.133Z,5.10
2023-04-26T23:28:28.410Z,5.27
2023-04-26T23:30:55.770Z,4.90
2023-04-26T23:33:25.321Z,4.90
2023-04-26T23:35:55.096Z,4.53
2023-04-26T23:38:22.504Z,4.77
2023-04-26T23:40:49.931Z,4.97
2023-04-26T23:43:17.284Z,5.13
2023-04-26T23:45:47.270Z,5.10
2023-04-26T23:48:14.878Z,5.30
2023-04-26T23:50:44.114Z,5.73
2023-04-26T23:53:11.617Z,5.00
2023-04-26T23:55:39.170Z,5.40
2023-04-26T23:58:06.552Z,5.33
